createdAt,value
2018-12-10T00:01:12.977Z,7.10
2018-12-10T00:03:41.249Z,7.10
2018-12-10T00:06:09.643Z,7.10
2018-12-10T00:08:38.002Z,7.20
2018-12-10T00:11:06.303Z,7.10
2018-12-10T00:13:34.611Z,7.20
2018-12-10T00:16:03.030Z,7.10
2018-12-10T00:18:31.333Z,7.10
2018-12-10T00:21:00.462Z,7.10
2018-12-10T00:23:28.744Z,7.10
2018-12-10T00:25:56.951Z,7.10
2018-12-10T00:28:25.243Z,7.10
2018-12-10T00:30:53.479Z,7.00
2018-12-10T00:33:21.729Z,7.00
2018-12-10T00:35:50.045Z,7.00
2018-12-10T00:38:18.337Z,7.00
2018-12-10T00:40:46.806Z,7.00
2018-12-10T00:43:15.077Z,6.90
2018-12-10T00:45:43.311Z,6.90
2018-12-10T00:48:11.746Z,6.90
2018-12-10T00:50:40.026Z,6.80
2018-12-10T00:53:08.271Z,6.80
2018-12-10T00:55:36.609Z,6.80
2018-12-10T00:58:04.862Z,6.80
2018-12-10T01:00:33.094Z,6.80
2018-12-10T01:03:01.309Z,6.80
2018-12-10T01:05:29.759Z,6.80
2018-12-10T01:07:58.042Z,6.70
2018-12-10T01:10:26.380Z,6.70
2018-12-10T01:12:54.639Z,6.70
2018-12-10T01:15:22.930Z,6.60
2018-12-10T01:17:51.158Z,6.60
2018-12-10T01:20:19.373Z,6.60
2018-12-10T01:22:47.619Z,6.60
2018-12-10T01:25:15.959Z,6.50
2018-12-10T01:27:44.290Z,6.50
2018-12-10T01:30:12.547Z,6.50
2018-12-10T01:32:40.865Z,6.40
2018-12-10T01:35:09.195Z,6.30
2018-12-10T01:37:37.699Z,6.20
2018-12-10T01:40:06.063Z,6.20
2018-12-10T01:42:34.325Z,6.30
2018-12-10T01:45:02.551Z,6.30
2018-12-10T01:47:30.835Z,6.40
2018-12-10T01:49:59.174Z,6.30
2018-12-10T01:52:27.464Z,6.30
2018-12-10T01:54:55.748Z,6.40
2018-12-10T01:57:24.006Z,6.30
2018-12-10T01:59:52.258Z,6.20
2018-12-10T02:02:20.534Z,6.10
2018-12-10T02:04:48.865Z,6.10
2018-12-10T02:07:17.151Z,6.00
2018-12-10T02:09:45.417Z,5.90
2018-12-10T02:12:13.680Z,5.90
2018-12-10T02:14:41.946Z,5.90
2018-12-10T02:17:10.214Z,5.90
2018-12-10T02:19:38.497Z,6.00
2018-12-10T02:22:06.773Z,6.00
2018-12-10T02:24:35.063Z,6.10
2018-12-10T02:27:03.443Z,6.00
2018-12-10T02:29:31.683Z,6.00
2018-12-10T02:32:00.143Z,6.10
2018-12-10T02:34:28.414Z,6.10
2018-12-10T02:36:56.640Z,6.00
2018-12-10T02:39:24.898Z,6.00
2018-12-10T02:41:53.193Z,6.00
2018-12-10T02:44:21.431Z,6.00
2018-12-10T02:46:49.798Z,6.00
2018-12-10T02:49:18.134Z,5.90
2018-12-10T02:51:46.652Z,5.90
2018-12-10T02:54:15.618Z,5.90
2018-12-10T02:56:43.843Z,5.90
2018-12-10T02:59:12.114Z,6.00
2018-12-10T03:01:40.379Z,6.00
2018-12-10T03:04:08.638Z,6.00
2018-12-10T03:06:36.971Z,6.00
2018-12-10T03:09:07.012Z,5.90
2018-12-10T03:11:35.542Z,5.80
2018-12-10T03:14:03.976Z,5.80
2018-12-10T03:16:32.342Z,5.80
2018-12-10T03:19:00.618Z,5.90
2018-12-10T03:21:29.206Z,6.00
2018-12-10T03:23:57.489Z,5.90
2018-12-10T03:26:26.014Z,6.00
2018-12-10T03:28:54.314Z,6.10
2018-12-10T03:31:22.575Z,6.10
2018-12-10T03:33:50.819Z,6.20
2018-12-10T03:36:19.140Z,6.20
2018-12-10T03:38:47.430Z,6.20
2018-12-10T03:41:15.729Z,6.20
2018-12-10T03:43:44.669Z,6.20
2018-12-10T03:46:13.106Z,6.20
2018-12-10T03:48:41.370Z,6.20
2018-12-10T03:51:09.606Z,6.20
2018-12-10T03:53:37.903Z,6.20
2018-12-10T03:56:06.262Z,6.20
2018-12-10T03:58:35.544Z,6.30
2018-12-10T04:01:03.929Z,6.30
2018-12-10T04:03:32.203Z,6.30
2018-12-10T04:06:00.538Z,6.20
2018-12-10T04:08:28.779Z,6.20
2018-12-10T04:10:57.007Z,6.20
2018-12-10T04:13:25.894Z,6.20
2018-12-10T04:15:54.217Z,6.30
2018-12-10T04:18:22.454Z,6.20
2018-12-10T04:20:51.303Z,6.30
2018-12-10T04:23:19.763Z,6.30
2018-12-10T04:25:48.121Z,6.30
2018-12-10T04:28:18.098Z,6.30
2018-12-10T04:30:46.372Z,6.30
2018-12-10T04:33:14.588Z,6.30
2018-12-10T04:35:43.960Z,6.30
2018-12-10T04:38:12.178Z,6.30
2018-12-10T04:40:40.974Z,6.30
2018-12-10T04:43:09.222Z,6.30
2018-12-10T04:45:37.472Z,6.20
2018-12-10T04:48:05.790Z,6.20
2018-12-10T04:50:34.399Z,6.20
2018-12-10T04:53:02.636Z,6.20
2018-12-10T04:55:30.910Z,6.20
2018-12-10T04:57:59.160Z,6.10
2018-12-10T05:00:27.478Z,6.20
2018-12-10T05:02:55.822Z,6.10
2018-12-10T05:05:24.061Z,6.10
2018-12-10T05:07:52.868Z,6.20
2018-12-10T05:10:21.154Z,6.20
2018-12-10T05:12:49.418Z,6.20
2018-12-10T05:15:17.806Z,6.20
2018-12-10T05:17:46.078Z,6.10
2018-12-10T05:20:14.374Z,6.10
2018-12-10T05:22:42.655Z,6.10
2018-12-10T05:25:10.982Z,6.00
2018-12-10T05:27:39.389Z,6.00
2018-12-10T05:30:07.727Z,6.10
2018-12-10T05:32:36.630Z,6.00
2018-12-10T05:35:05.300Z,6.10
2018-12-10T05:37:33.930Z,6.10
2018-12-10T05:40:02.302Z,6.10
2018-12-10T05:42:30.554Z,6.10
2018-12-10T05:44:58.851Z,6.00
2018-12-10T05:47:27.154Z,6.00
2018-12-10T05:49:55.358Z,6.00
2018-12-10T05:52:23.610Z,6.00
2018-12-10T05:54:52.526Z,6.10
2018-12-10T05:57:20.831Z,6.00
2018-12-10T05:59:49.089Z,6.00
2018-12-10T06:02:17.291Z,6.00
2018-12-10T06:04:45.510Z,6.00
2018-12-10T06:07:13.810Z,6.00
2018-12-10T06:09:42.092Z,6.00
2018-12-10T06:12:11.450Z,6.00
2018-12-10T06:14:39.703Z,6.00
2018-12-10T06:17:08.021Z,6.00
2018-12-10T06:19:36.347Z,6.00
2018-12-10T06:22:04.633Z,6.00
2018-12-10T06:24:32.870Z,6.00
2018-12-10T06:27:01.093Z,6.00
2018-12-10T06:29:29.322Z,6.00
2018-12-10T06:31:57.543Z,6.00
2018-12-10T06:34:26.681Z,6.00
2018-12-10T06:36:55.096Z,6.00
2018-12-10T06:39:23.455Z,6.00
2018-12-10T06:41:51.931Z,5.90
2018-12-10T06:44:20.190Z,5.90
2018-12-10T06:46:48.466Z,5.80
2018-12-10T06:49:17.307Z,5.80
2018-12-10T06:51:46.685Z,5.80
2018-12-10T06:54:15.418Z,5.80
2018-12-10T06:56:43.643Z,5.80
2018-12-10T06:59:11.882Z,5.80
2018-12-10T07:01:41.487Z,5.70
2018-12-10T07:04:09.794Z,5.70
2018-12-10T07:06:38.035Z,5.70
2018-12-10T07:09:06.987Z,5.70
2018-12-10T07:11:35.344Z,5.70
2018-12-10T07:14:03.666Z,5.70
2018-12-10T07:16:32.625Z,5.70
2018-12-10T07:19:00.930Z,5.60
2018-12-10T07:21:29.377Z,5.60
2018-12-10T07:23:58.631Z,5.70
2018-12-10T07:26:26.863Z,5.60
2018-12-10T07:28:55.074Z,5.60
2018-12-10T07:31:24.401Z,5.60
2018-12-10T07:33:52.632Z,5.60
2018-12-10T07:36:20.863Z,5.60
2018-12-10T07:38:49.087Z,5.50
2018-12-10T07:41:17.325Z,5.50
2018-12-10T07:43:45.530Z,5.50
2018-12-10T07:46:13.906Z,5.50
2018-12-10T07:48:42.143Z,5.50
2018-12-10T07:51:10.365Z,5.40
2018-12-10T07:53:38.589Z,5.40
2018-12-10T07:56:07.314Z,5.50
2018-12-10T07:58:35.530Z,5.50
2018-12-10T08:01:03.838Z,5.50
2018-12-10T08:03:32.095Z,5.60
2018-12-10T08:06:00.397Z,5.70
2018-12-10T08:08:28.650Z,5.70
2018-12-10T08:10:56.889Z,5.60
2018-12-10T08:13:25.205Z,5.60
2018-12-10T08:15:53.454Z,5.60
2018-12-10T08:18:21.770Z,5.60
2018-12-10T08:20:50.674Z,5.60
2018-12-10T08:23:18.992Z,5.60
2018-12-10T08:25:47.220Z,5.80
2018-12-10T08:28:15.506Z,5.90
2018-12-10T08:30:43.830Z,5.90
2018-12-10T08:33:12.114Z,5.90
2018-12-10T08:38:10.586Z,6.00
2018-12-10T08:40:14.005Z,5.90
2018-12-10T08:40:38.970Z,6.10
2018-12-10T08:43:07.266Z,6.10
2018-12-10T08:45:35.483Z,6.20
2018-12-10T08:48:03.696Z,6.30
2018-12-10T08:50:32.030Z,6.20
2018-12-10T08:53:00.279Z,6.20
2018-12-10T08:55:28.586Z,6.20
2018-12-10T08:57:56.823Z,6.10
2018-12-10T09:00:25.090Z,6.00
2018-12-10T09:02:53.298Z,6.00
2018-12-10T09:05:21.515Z,6.00
2018-12-10T09:07:50.385Z,6.00
2018-12-10T09:10:18.686Z,5.90
2018-12-10T09:12:47.555Z,5.80
2018-12-10T09:15:16.035Z,5.80
2018-12-10T09:17:44.877Z,5.70
2018-12-10T09:20:13.226Z,5.60
2018-12-10T09:22:41.679Z,5.50
2018-12-10T09:25:09.977Z,5.50
2018-12-10T09:27:38.252Z,5.60
2018-12-10T09:30:09.933Z,5.70
2018-12-10T09:32:38.186Z,5.90
2018-12-10T09:35:06.601Z,5.90
2018-12-10T09:37:34.838Z,5.90
2018-12-10T09:40:03.239Z,5.90
2018-12-10T09:42:31.454Z,5.90
2018-12-10T09:44:59.672Z,6.00
2018-12-10T09:47:27.898Z,6.10
2018-12-10T09:49:56.122Z,6.10
2018-12-10T09:52:24.354Z,6.10
2018-12-10T09:54:52.572Z,6.20
2018-12-10T09:57:20.806Z,6.30
2018-12-10T09:59:49.046Z,6.30
2018-12-10T10:02:17.266Z,6.30
2018-12-10T10:04:45.579Z,6.40
2018-12-10T10:07:13.830Z,6.60
2018-12-10T10:09:42.198Z,6.60
2018-12-10T10:12:10.882Z,6.70
2018-12-10T10:14:39.213Z,6.80
2018-12-10T10:17:07.493Z,6.80
2018-12-10T10:19:35.750Z,6.70
2018-12-10T10:22:04.051Z,6.60
2018-12-10T10:24:32.279Z,6.50
2018-12-10T10:27:00.595Z,6.30
2018-12-10T10:29:28.839Z,6.20
2018-12-10T10:31:57.430Z,6.20
2018-12-10T10:34:25.993Z,6.40
2018-12-10T10:36:54.282Z,6.60
2018-12-10T10:39:22.833Z,6.70
2018-12-10T10:41:51.231Z,6.50
2018-12-10T10:44:19.459Z,6.50
2018-12-10T10:46:47.973Z,6.50
2018-12-10T10:49:16.382Z,6.50
2018-12-10T10:51:44.644Z,6.30
2018-12-10T10:54:12.892Z,6.10
2018-12-10T10:56:41.141Z,6.10
2018-12-10T10:59:09.617Z,6.20
2018-12-10T11:01:43.221Z,6.30
2018-12-10T11:04:11.555Z,6.30
2018-12-10T11:06:39.881Z,6.30
2018-12-10T11:09:15.159Z,6.40
2018-12-10T11:11:38.501Z,6.50
2018-12-10T11:14:06.885Z,6.50
2018-12-10T11:16:35.097Z,6.50
2018-12-10T11:19:03.753Z,6.40
2018-12-10T11:21:32.059Z,6.50
2018-12-10T11:24:00.377Z,6.50
2018-12-10T11:26:28.681Z,6.60
2018-12-10T11:28:56.997Z,6.60
2018-12-10T11:31:25.291Z,6.60
2018-12-10T11:33:53.829Z,6.60
2018-12-10T11:36:22.105Z,6.60
2018-12-10T11:38:50.363Z,6.60
2018-12-10T11:41:19.302Z,6.60
2018-12-10T11:43:47.654Z,6.60
2018-12-10T11:46:15.869Z,6.60
2018-12-10T11:48:44.077Z,6.70
2018-12-10T11:51:12.317Z,6.80
2018-12-10T11:53:40.599Z,6.90
2018-12-10T11:56:08.801Z,6.90
2018-12-10T11:58:36.995Z,6.90
2018-12-10T12:01:05.358Z,7.00
2018-12-10T12:03:33.589Z,7.00
2018-12-10T12:06:01.878Z,6.90
2018-12-10T12:08:30.108Z,6.90
2018-12-10T12:10:58.350Z,6.80
2018-12-10T12:13:26.570Z,6.70
2018-12-10T12:15:54.813Z,6.70
2018-12-10T12:18:23.118Z,6.70
2018-12-10T12:20:51.400Z,6.70
2018-12-10T12:23:19.622Z,6.80
2018-12-10T12:25:47.869Z,6.70
2018-12-10T12:28:16.306Z,6.60
2018-12-10T12:30:44.573Z,6.60
2018-12-10T12:33:12.817Z,6.60
2018-12-10T12:35:41.145Z,6.60
2018-12-10T12:38:09.369Z,6.70
2018-12-10T12:40:37.687Z,6.70
2018-12-10T12:43:08.516Z,6.60
2018-12-10T12:45:36.249Z,6.50
2018-12-10T12:48:04.611Z,6.50
2018-12-10T12:50:32.861Z,6.40
2018-12-10T12:53:01.197Z,6.50
2018-12-10T12:55:29.527Z,6.50
2018-12-10T12:57:57.805Z,6.50
2018-12-10T13:00:27.162Z,6.50
2018-12-10T13:02:55.918Z,6.40
2018-12-10T13:05:25.266Z,6.40
2018-12-10T13:07:53.609Z,6.40
2018-12-10T13:10:22.709Z,6.40
2018-12-10T13:12:50.974Z,6.30
2018-12-10T13:15:19.364Z,6.20
2018-12-10T13:17:47.696Z,6.20
2018-12-10T13:20:16.238Z,6.10
2018-12-10T13:22:47.604Z,6.10
2018-12-10T13:25:14.757Z,6.00
2018-12-10T13:27:43.116Z,5.90
2018-12-10T13:30:11.598Z,6.00
2018-12-10T13:32:39.846Z,5.90
2018-12-10T13:35:08.193Z,6.00
2018-12-10T13:37:36.944Z,5.90
2018-12-10T13:40:05.572Z,5.90
2018-12-10T13:42:33.818Z,5.90
2018-12-10T13:45:02.036Z,6.00
2018-12-10T13:47:30.805Z,6.00
2018-12-10T13:49:59.078Z,6.10
2018-12-10T13:52:27.303Z,6.10
2018-12-10T13:54:55.538Z,6.10
2018-12-10T13:57:23.757Z,6.20
2018-12-10T13:59:51.969Z,6.10
2018-12-10T14:02:20.246Z,6.10
2018-12-10T14:04:54.833Z,6.10
2018-12-10T14:07:23.175Z,6.10
2018-12-10T14:09:51.478Z,6.10
2018-12-10T14:12:19.710Z,6.10
2018-12-10T14:14:47.933Z,6.00
2018-12-10T14:17:16.317Z,6.00
2018-12-10T14:19:44.707Z,6.00
2018-12-10T14:22:12.997Z,6.00
2018-12-10T14:24:41.357Z,6.00
2018-12-10T14:27:09.643Z,6.00
2018-12-10T14:29:37.975Z,6.00
2018-12-10T14:32:06.358Z,6.00
2018-12-10T14:34:34.693Z,6.00
2018-12-10T14:37:02.946Z,6.00
2018-12-10T14:39:31.214Z,6.00
2018-12-10T14:41:59.581Z,5.90
2018-12-10T14:44:27.866Z,5.90
2018-12-10T14:46:56.131Z,5.90
2018-12-10T14:49:24.370Z,5.90
2018-12-10T14:51:53.422Z,5.80
2018-12-10T14:54:21.666Z,5.90
2018-12-10T14:56:49.987Z,5.80
2018-12-10T14:59:18.230Z,5.80
2018-12-10T15:01:46.505Z,5.70
2018-12-10T15:04:14.757Z,5.70
2018-12-10T15:06:42.997Z,5.70
2018-12-10T15:09:11.213Z,5.70
2018-12-10T15:11:39.486Z,5.50
2018-12-10T15:14:07.773Z,5.40
2018-12-10T15:16:35.975Z,5.40
2018-12-10T15:19:04.474Z,5.40
2018-12-10T15:21:32.807Z,5.30
2018-12-10T15:24:01.110Z,5.30
2018-12-10T15:26:29.422Z,5.30
2018-12-10T15:28:57.661Z,5.40
2018-12-10T15:31:25.890Z,5.30
2018-12-10T15:33:54.159Z,5.30
2018-12-10T15:36:22.387Z,5.30
2018-12-10T15:38:50.649Z,5.30
2018-12-10T15:41:19.014Z,5.40
2018-12-10T15:43:47.241Z,5.40
2018-12-10T15:46:15.471Z,5.30
2018-12-10T15:48:43.808Z,5.30
2018-12-10T15:51:12.030Z,5.30
2018-12-10T15:53:40.366Z,5.20
2018-12-10T15:56:08.689Z,5.20
2018-12-10T15:58:36.942Z,5.30
2018-12-10T16:01:05.269Z,5.20
2018-12-10T16:03:33.630Z,5.20
2018-12-10T16:06:01.917Z,5.20
2018-12-10T16:08:30.218Z,5.20
2018-12-10T16:10:58.546Z,5.10
2018-12-10T16:13:26.746Z,5.20
2018-12-10T16:15:55.055Z,5.20
2018-12-10T16:18:23.304Z,5.10
2018-12-10T16:20:51.551Z,5.10
2018-12-10T16:23:20.793Z,5.10
2018-12-10T16:25:49.017Z,5.10
2018-12-10T16:28:17.261Z,5.10
2018-12-10T16:30:45.733Z,5.00
2018-12-10T16:33:14.116Z,5.10
2018-12-10T16:35:42.633Z,5.00
2018-12-10T16:38:10.865Z,4.90
2018-12-10T16:40:39.227Z,4.70
2018-12-10T16:43:07.425Z,4.60
2018-12-10T16:45:35.813Z,4.50
2018-12-10T16:48:04.235Z,4.40
2018-12-10T16:50:32.486Z,4.40
2018-12-10T16:53:00.721Z,4.40
2018-12-10T16:55:28.950Z,4.30
2018-12-10T16:57:57.233Z,4.30
2018-12-10T17:00:25.633Z,4.30
2018-12-10T17:02:54.003Z,4.30
2018-12-10T17:05:26.537Z,4.30
2018-12-10T17:07:54.888Z,4.20
2018-12-10T17:10:24.556Z,4.30
2018-12-10T17:12:52.955Z,4.30
2018-12-10T17:15:21.229Z,4.20
2018-12-10T17:17:49.526Z,4.20
2018-12-10T17:20:17.822Z,4.20
2018-12-10T17:22:46.083Z,4.10
2018-12-10T17:25:14.320Z,4.20
2018-12-10T17:27:42.649Z,4.20
2018-12-10T17:30:11.064Z,4.30
2018-12-10T17:32:39.385Z,4.30
2018-12-10T17:35:07.747Z,4.40
2018-12-10T17:37:35.982Z,4.50
2018-12-10T17:40:04.829Z,4.50
2018-12-10T17:42:33.726Z,4.50
2018-12-10T17:45:01.974Z,4.50
2018-12-10T17:47:30.229Z,4.50
2018-12-10T17:49:59.129Z,4.50
2018-12-10T17:52:27.454Z,4.50
2018-12-10T17:54:55.686Z,4.50
2018-12-10T17:57:24.585Z,4.60
2018-12-10T17:59:53.016Z,4.60
2018-12-10T18:02:21.331Z,4.60
2018-12-10T18:04:49.731Z,4.60
2018-12-10T18:07:18.002Z,4.60
2018-12-10T18:09:47.010Z,4.60
2018-12-10T18:12:15.338Z,4.60
2018-12-10T18:14:43.634Z,4.60
2018-12-10T18:17:12.213Z,4.60
2018-12-10T18:19:42.334Z,4.60
2018-12-10T18:22:10.732Z,4.60
2018-12-10T18:24:38.985Z,4.60
2018-12-10T18:27:07.223Z,4.60
2018-12-10T18:29:35.465Z,4.60
2018-12-10T18:32:03.791Z,4.70
2018-12-10T18:34:32.003Z,4.70
2018-12-10T18:37:00.824Z,4.70
2018-12-10T18:39:29.062Z,4.70
2018-12-10T18:41:57.265Z,4.70
2018-12-10T18:44:25.660Z,4.70
2018-12-10T18:46:53.975Z,4.70
2018-12-10T18:49:22.228Z,4.80
2018-12-10T18:51:50.535Z,4.70
2018-12-10T18:54:18.784Z,4.70
2018-12-10T18:56:47.036Z,4.70
2018-12-10T18:59:15.447Z,4.70
2018-12-10T19:01:43.785Z,4.80
2018-12-10T19:04:13.091Z,4.80
2018-12-10T19:06:41.387Z,4.80
2018-12-10T19:09:09.767Z,4.70
2018-12-10T19:11:38.220Z,4.70
2018-12-10T19:14:06.433Z,4.70
2018-12-10T19:16:34.650Z,4.60
2018-12-10T19:19:03.089Z,4.60
2018-12-10T19:21:31.510Z,4.60
2018-12-10T19:24:00.083Z,4.60
2018-12-10T19:26:28.496Z,4.60
2018-12-10T19:28:56.701Z,4.60
2018-12-10T19:31:24.908Z,4.60
2018-12-10T19:33:53.135Z,4.50
2018-12-10T19:36:22.337Z,4.50
2018-12-10T19:38:50.596Z,4.50
2018-12-10T19:41:19.142Z,4.50
2018-12-10T19:43:47.385Z,4.60
2018-12-10T19:46:15.690Z,4.50
2018-12-10T19:48:43.923Z,4.50
2018-12-10T19:51:12.279Z,4.50
2018-12-10T19:53:40.581Z,4.60
2018-12-10T19:56:08.838Z,4.60
2018-12-10T19:58:37.065Z,4.60
2018-12-10T20:01:05.390Z,4.60
2018-12-10T20:03:33.663Z,4.60
2018-12-10T20:06:07.405Z,4.60
2018-12-10T20:08:35.614Z,4.60
2018-12-10T20:11:04.058Z,4.50
2018-12-10T20:13:32.257Z,4.50
2018-12-10T20:16:00.480Z,4.50
2018-12-10T20:18:28.698Z,4.50
2018-12-10T20:20:56.925Z,4.50
2018-12-10T20:23:25.193Z,4.40
2018-12-10T20:25:53.417Z,4.40
2018-12-10T20:28:21.620Z,4.40
2018-12-10T20:30:49.885Z,4.40
2018-12-10T20:33:18.193Z,4.50
2018-12-10T20:35:46.409Z,4.40
2018-12-10T20:38:14.710Z,4.50
2018-12-10T20:40:43.725Z,4.50
2018-12-10T20:43:12.011Z,4.50
2018-12-10T20:45:40.209Z,4.50
2018-12-10T20:48:08.706Z,4.50
2018-12-10T20:50:36.995Z,4.50
2018-12-10T20:53:05.337Z,4.50
2018-12-10T20:55:33.561Z,4.50
2018-12-10T20:58:01.772Z,4.60
2018-12-10T21:00:30.522Z,4.60
2018-12-10T21:02:58.844Z,4.60
2018-12-10T21:05:27.122Z,4.60
2018-12-10T21:07:55.378Z,4.60
2018-12-10T21:10:23.575Z,4.70
2018-12-10T21:12:51.949Z,4.70
2018-12-10T21:15:20.138Z,4.60
2018-12-10T21:17:48.362Z,4.60
2018-12-10T21:20:16.640Z,4.70
2018-12-10T21:22:45.022Z,4.60
2018-12-10T21:25:13.241Z,4.60
2018-12-10T21:27:41.486Z,4.70
2018-12-10T21:30:09.843Z,4.60
2018-12-10T21:32:38.326Z,4.60
2018-12-10T21:35:06.594Z,4.70
2018-12-10T21:37:34.809Z,4.70
2018-12-10T21:40:03.116Z,4.70
2018-12-10T21:42:31.381Z,4.70
2018-12-10T21:44:59.645Z,4.70
2018-12-10T21:47:27.922Z,4.60
2018-12-10T21:49:56.175Z,4.60
2018-12-10T21:52:24.462Z,4.60
2018-12-10T21:54:52.714Z,4.60
2018-12-10T21:57:21.169Z,4.60
2018-12-10T21:59:49.406Z,4.50
2018-12-10T22:02:17.713Z,4.50
2018-12-10T22:04:45.972Z,4.60
2018-12-10T22:07:19.675Z,4.60
2018-12-10T22:09:47.961Z,4.60
2018-12-10T22:12:16.278Z,4.70
2018-12-10T22:14:44.513Z,4.70
2018-12-10T22:17:13.678Z,4.60
2018-12-10T22:19:41.945Z,4.60
2018-12-10T22:22:10.160Z,4.50
2018-12-10T22:24:38.387Z,4.50
2018-12-10T22:27:06.591Z,4.40
2018-12-10T22:29:34.822Z,4.40
2018-12-10T22:32:03.063Z,4.30
2018-12-10T22:34:31.314Z,4.30
2018-12-10T22:37:00.112Z,4.40
2018-12-10T22:39:28.338Z,4.50
2018-12-10T22:41:56.539Z,4.50
2018-12-10T22:44:24.770Z,4.50
2018-12-10T22:46:52.965Z,4.50
2018-12-10T22:49:21.210Z,4.60
2018-12-10T22:51:49.439Z,4.60
2018-12-10T22:54:17.658Z,4.50
2018-12-10T22:56:45.963Z,4.50
2018-12-10T22:59:14.256Z,4.50
2018-12-10T23:01:42.679Z,4.50
2018-12-10T23:04:10.929Z,4.40
2018-12-10T23:06:39.161Z,4.40
2018-12-10T23:09:07.985Z,4.40
2018-12-10T23:11:37.636Z,4.40
2018-12-10T23:14:05.925Z,4.40
2018-12-10T23:16:34.219Z,4.40
2018-12-10T23:19:02.525Z,4.50
2018-12-10T23:21:30.718Z,4.50
2018-12-10T23:23:59.507Z,4.50
2018-12-10T23:26:27.713Z,4.50
2018-12-10T23:28:56.022Z,4.60
2018-12-10T23:31:24.309Z,4.60
2018-12-10T23:33:52.694Z,4.60
2018-12-10T23:36:20.960Z,4.60
2018-12-10T23:38:49.237Z,4.60
2018-12-10T23:41:17.465Z,4.70
2018-12-10T23:43:45.733Z,4.70
2018-12-10T23:46:13.961Z,4.70
2018-12-10T23:48:42.205Z,4.70
2018-12-10T23:51:10.482Z,4.80
2018-12-10T23:53:38.698Z,4.90
2018-12-10T23:56:06.903Z,5.00
2018-12-10T23:58:35.160Z,5.00
